createdAt,value
2022-12-23T00:02:14.051Z,2.88
2022-12-23T00:05:17.123Z,3.06
2022-12-23T00:08:20.764Z,3.07
2022-12-23T00:11:27.114Z,2.96
2022-12-23T00:14:54.840Z,2.92
2022-12-23T00:17:57.868Z,2.97
2022-12-23T00:21:08.315Z,2.90
2022-12-23T00:24:12.203Z,2.94
2022-12-23T00:27:14.786Z,2.94
2022-12-23T00:30:20.194Z,3.01
2022-12-23T00:33:25.494Z,3.05
2022-12-23T00:36:30.076Z,3.09
2022-12-23T00:39:54.932Z,3.09
2022-12-23T00:42:59.582Z,3.09
2022-12-23T00:46:02.178Z,3.08
2022-12-23T00:49:24.242Z,3.09
2022-12-23T00:52:27.499Z,3.20
2022-12-23T00:55:30.723Z,3.27
2022-12-23T00:58:33.302Z,3.26
2022-12-23T01:01:55.245Z,3.26
2022-12-23T01:05:16.691Z,3.26
2022-12-23T01:08:19.492Z,3.24
2022-12-23T01:11:22.024Z,3.31
2022-12-23T01:14:25.189Z,3.34
2022-12-23T01:17:27.770Z,3.31
2022-12-23T01:20:40.811Z,3.25
2022-12-23T01:23:43.449Z,3.23
2022-12-23T01:30:30.994Z,3.34
2022-12-23T01:33:33.948Z,3.37
2022-12-23T01:36:36.672Z,3.51
2022-12-23T01:39:40.016Z,3.42
2022-12-23T01:42:46.662Z,3.36
2022-12-23T01:45:50.522Z,3.41
2022-12-23T01:48:53.902Z,3.47
2022-12-23T01:51:56.855Z,3.37
2022-12-23T01:54:59.427Z,3.40
2022-12-23T01:58:15.067Z,3.42
2022-12-23T02:01:36.454Z,3.65
2022-12-23T02:04:39.780Z,3.45
2022-12-23T02:08:02.629Z,3.44
2022-12-23T02:11:17.855Z,3.47
2022-12-23T02:14:40.085Z,3.45
2022-12-23T02:17:54.960Z,3.45
2022-12-23T02:21:33.719Z,3.59
2022-12-23T02:25:07.916Z,3.60
2022-12-23T02:28:13.214Z,3.57
2022-12-23T02:31:29.929Z,3.66
2022-12-23T02:34:35.593Z,3.53
2022-12-23T02:38:07.100Z,3.56
2022-12-23T02:41:16.281Z,3.59
2022-12-23T02:44:45.085Z,3.45
2022-12-23T02:47:56.533Z,3.31
2022-12-23T02:51:01.596Z,3.33
2022-12-23T02:54:08.579Z,3.33
2022-12-23T02:57:18.125Z,3.22
2022-12-23T03:00:23.301Z,3.22
2022-12-23T03:03:27.202Z,3.16
2022-12-23T03:06:35.341Z,3.12
2022-12-23T03:09:55.897Z,3.12
2022-12-23T03:13:10.246Z,3.09
2022-12-23T03:16:23.482Z,3.07
2022-12-23T03:23:30.517Z,2.97
2022-12-23T03:26:57.167Z,3.02
2022-12-23T03:30:05.268Z,3.05
2022-12-23T03:36:57.376Z,3.12
2022-12-23T03:40:10.401Z,3.09
2022-12-23T03:43:21.099Z,3.01
2022-12-23T03:46:33.908Z,3.06
2022-12-23T03:57:02.397Z,2.87
2022-12-23T04:00:06.725Z,2.89
2022-12-23T04:03:26.884Z,2.79
2022-12-23T04:06:39.476Z,2.75
2022-12-23T04:09:43.482Z,2.76
2022-12-23T04:12:46.428Z,2.72
2022-12-23T04:15:49.337Z,2.82
2022-12-23T04:18:52.227Z,2.80
2022-12-23T04:21:57.064Z,2.90
2022-12-23T04:25:02.762Z,2.79
2022-12-23T04:28:05.691Z,2.65
2022-12-23T04:31:08.683Z,2.63
2022-12-23T04:34:14.524Z,2.62
2022-12-23T04:37:17.477Z,2.59
2022-12-23T04:43:42.000Z,2.64
2022-12-23T04:47:05.221Z,2.51
2022-12-23T04:50:08.540Z,2.43
2022-12-23T04:53:11.971Z,2.45
2022-12-23T04:56:15.963Z,2.48
2022-12-23T04:59:18.979Z,2.47
2022-12-23T05:02:33.752Z,2.50
2022-12-23T05:09:22.169Z,2.43
2022-12-23T05:23:33.111Z,2.41
2022-12-23T05:27:45.122Z,2.83
2022-12-23T05:31:10.800Z,2.83
2022-12-23T05:47:56.142Z,2.27
2022-12-23T05:54:45.409Z,2.30
2022-12-23T06:04:58.433Z,2.27
2022-12-23T06:11:53.363Z,2.32
2022-12-23T06:14:56.230Z,2.28
2022-12-23T06:21:44.848Z,2.19
2022-12-23T06:24:48.323Z,2.18
2022-12-23T06:27:51.787Z,2.08
2022-12-23T06:31:15.111Z,2.05
2022-12-23T06:37:58.061Z,1.87
2022-12-23T06:41:11.649Z,1.90
2022-12-23T06:44:14.550Z,1.87
2022-12-23T06:47:19.650Z,1.90
2022-12-23T06:50:22.669Z,1.85
2022-12-23T06:53:26.412Z,1.82
2022-12-23T06:56:29.204Z,1.68
2022-12-23T07:10:12.678Z,1.57
2022-12-23T07:13:15.825Z,1.59
2022-12-23T07:16:18.520Z,1.68
2022-12-23T07:19:21.521Z,1.66
2022-12-23T07:22:24.652Z,1.66
2022-12-23T07:25:31.126Z,1.71
2022-12-23T07:28:36.557Z,1.78
2022-12-23T07:32:03.971Z,1.75
2022-12-23T07:35:06.938Z,1.88
2022-12-23T07:38:10.054Z,1.93
2022-12-23T07:41:13.869Z,1.92
2022-12-23T07:44:17.170Z,1.92
2022-12-23T07:47:19.705Z,1.93
2022-12-23T07:57:45.334Z,1.96
2022-12-23T08:08:52.495Z,1.73
2022-12-23T08:11:55.293Z,1.83
2022-12-23T08:29:48.579Z,2.24
2022-12-23T08:32:51.527Z,2.01
2022-12-23T08:35:54.938Z,2.09
2022-12-23T08:39:00.480Z,2.12
2022-12-23T08:42:03.151Z,2.12
2022-12-23T08:45:09.488Z,2.07
2022-12-23T08:48:12.929Z,2.00
2022-12-23T08:51:17.839Z,1.93
2022-12-23T09:05:41.092Z,1.99
2022-12-23T09:28:06.203Z,2.13
2022-12-23T09:31:13.238Z,2.16
2022-12-23T09:34:15.788Z,2.12
2022-12-23T09:37:19.177Z,2.21
2022-12-23T09:40:23.453Z,2.22
2022-12-23T09:43:43.355Z,2.23
2022-12-23T09:46:58.763Z,2.21
2022-12-23T09:50:10.517Z,2.12
2022-12-23T09:53:30.295Z,2.06
2022-12-23T09:56:48.127Z,2.19
2022-12-23T10:00:02.987Z,2.23
2022-12-23T10:03:34.806Z,2.37
2022-12-23T10:06:39.583Z,2.23
2022-12-23T10:28:22.772Z,2.13
2022-12-23T12:58:24.555Z,3.19
2022-12-23T13:01:48.435Z,3.16
2022-12-23T13:05:29.212Z,3.10
2022-12-23T13:08:39.587Z,3.20
2022-12-23T13:11:59.637Z,3.22
2022-12-23T13:15:11.556Z,3.34
2022-12-23T13:18:29.341Z,3.39
2022-12-23T13:21:45.687Z,3.36
2022-12-23T13:24:59.727Z,3.42
2022-12-23T13:28:27.076Z,3.57
2022-12-23T13:32:00.039Z,3.54
2022-12-23T13:39:27.041Z,3.44
2022-12-23T13:42:38.395Z,3.39
2022-12-23T13:45:42.632Z,3.26
2022-12-23T13:56:27.221Z,3.44
2022-12-23T13:59:39.905Z,3.55
2022-12-23T14:02:50.241Z,3.58
2022-12-23T14:05:53.692Z,3.59
2022-12-23T14:08:56.437Z,3.70
2022-12-23T14:12:28.859Z,3.67
2022-12-23T14:16:14.581Z,3.62
2022-12-23T14:19:55.473Z,3.63
2022-12-23T14:23:19.960Z,3.45
2022-12-23T14:26:46.142Z,3.44
2022-12-23T14:29:51.860Z,3.44
2022-12-23T14:33:01.153Z,3.53
2022-12-23T14:36:24.851Z,3.52
2022-12-23T14:39:33.293Z,3.63
2022-12-23T14:42:40.977Z,3.62
2022-12-23T14:45:44.845Z,3.67
2022-12-23T14:48:59.575Z,3.68
2022-12-23T14:52:39.192Z,3.63
2022-12-23T14:55:46.795Z,3.68
2022-12-23T14:59:11.567Z,3.61
2022-12-23T15:02:20.321Z,3.62
2022-12-23T15:05:23.927Z,3.68
2022-12-23T15:08:39.349Z,3.71
2022-12-23T15:11:42.879Z,3.74
2022-12-23T15:14:51.955Z,3.74
2022-12-23T15:18:03.681Z,3.73
2022-12-23T15:21:12.472Z,3.66
2022-12-23T15:24:17.506Z,3.68
2022-12-23T15:27:29.796Z,3.75
2022-12-23T15:30:56.231Z,3.79
2022-12-23T15:34:07.809Z,3.84
2022-12-23T15:37:17.654Z,3.73
2022-12-23T15:40:31.940Z,3.63
2022-12-23T15:43:40.937Z,3.77
2022-12-23T15:46:44.411Z,3.73
2022-12-23T15:49:47.454Z,3.75
2022-12-23T15:52:53.937Z,3.70
2022-12-23T15:55:56.836Z,3.67
2022-12-23T15:59:02.237Z,3.65
2022-12-23T16:02:58.854Z,3.47
2022-12-23T16:05:48.298Z,3.57
